Time;durP1;ratioP1;P1;durP2;ratioP2;P2;SDS_P1;SDS_P2;PMS_P1;PMS_P2;Temp;Humidity;BMP_temperature;BMP_pressure;BME280_temperature;BME280_humidity;BME280_pressure;Samples;Min_cycle;Max_cycle;Signal;HPM_P1;HPM_P2
2021/05/04 00:01:54;;;;;;;5.22;2.38;;;;;;;;;;5031676;28;20481;-49
2021/05/04 00:04:20;;;;;;;3.72;2.80;;;;;;;;;;5030788;28;20095;-50
2021/05/04 00:06:45;;;;;;;5.32;2.67;;;;;;;;;;5027850;28;20018;-49
2021/05/04 00:09:10;;;;;;;3.47;2.42;;;;;;;;;;5029189;28;20177;-49
2021/05/04 00:11:35;;;;;;;3.00;2.70;;;;;;;;;;5030482;28;20033;-52
2021/05/04 00:14:01;;;;;;;3.85;2.95;;;;;;;;;;5031973;28;20053;-50
2021/05/04 00:16:26;;;;;;;3.17;2.80;;;;;;;;;;5031646;28;20788;-52
2021/05/04 00:18:51;;;;;;;4.15;3.25;;;;;;;;;;5029319;28;20472;-48
2021/05/04 00:21:16;;;;;;;4.13;2.97;;;;;;;;;;5031621;28;20469;-49
2021/05/04 00:23:42;;;;;;;3.75;2.85;;;;;;;;;;5028153;28;20479;-53
2021/05/04 00:26:08;;;;;;;4.68;3.13;;;;;;;;;;5026000;28;20018;-54
2021/05/04 00:28:34;;;;;;;4.50;3.10;;;;;;;;;;5014482;28;20025;-52
2021/05/04 00:30:59;;;;;;;3.30;2.97;;;;;;;;;;5031461;28;20160;-49
2021/05/04 00:33:24;;;;;;;4.55;2.95;;;;;;;;;;5029994;28;20054;-52
2021/05/04 00:35:50;;;;;;;3.00;2.70;;;;;;;;;;5032117;28;20152;-51
2021/05/04 00:38:15;;;;;;;2.88;2.35;;;;;;;;;;5028697;28;20163;-49
2021/05/04 00:40:41;;;;;;;4.20;2.75;;;;;;;;;;5031441;28;20028;-48
2021/05/04 00:43:06;;;;;;;4.60;2.97;;;;;;;;;;5031440;28;20554;-49
2021/05/04 00:45:31;;;;;;;3.03;2.70;;;;;;;;;;5031399;28;20021;-49
2021/05/04 00:47:56;;;;;;;5.63;2.78;;;;;;;;;;5028312;28;20018;-54
2021/05/04 00:50:22;;;;;;;3.00;2.60;;;;;;;;;;5031436;28;20096;-53
2021/05/04 00:52:47;;;;;;;4.15;2.90;;;;;;;;;;5030236;28;20105;-51
2021/05/04 00:55:13;;;;;;;4.72;3.33;;;;;;;;;;5030670;28;20059;-51
2021/05/04 00:57:40;;;;;;;4.30;2.88;;;;;;;;;;5028488;28;20057;-50
2021/05/04 01:00:05;;;;;;;3.50;2.78;;;;;;;;;;5031074;28;20029;-55
2021/05/04 01:02:31;;;;;;;3.75;3.30;;;;;;;;;;5030806;28;20032;-51
2021/05/04 01:04:56;;;;;;;2.92;2.63;;;;;;;;;;5031728;28;20025;-52
2021/05/04 01:07:22;;;;;;;4.47;2.75;;;;;;;;;;5029378;28;20025;-50
2021/05/04 01:09:47;;;;;;;3.65;3.17;;;;;;;;;;5033989;28;20041;-49
2021/05/04 01:12:12;;;;;;;4.82;3.13;;;;;;;;;;5034586;28;20040;-52
2021/05/04 01:14:37;;;;;;;4.28;2.67;;;;;;;;;;5034847;28;20378;-49
2021/05/04 01:17:03;;;;;;;2.95;2.42;;;;;;;;;;5032781;28;20025;-52
2021/05/04 01:19:28;;;;;;;3.65;2.83;;;;;;;;;;5034895;28;20028;-52
2021/05/04 01:21:53;;;;;;;4.15;3.20;;;;;;;;;;5034493;28;20025;-53
2021/05/04 01:24:19;;;;;;;4.82;3.00;;;;;;;;;;5034356;28;20393;-52
2021/05/04 01:26:45;;;;;;;4.10;2.92;;;;;;;;;;5034812;28;20457;-53
2021/05/04 01:29:10;;;;;;;3.05;2.75;;;;;;;;;;5032362;28;20143;-53
2021/05/04 01:31:36;;;;;;;5.30;3.20;;;;;;;;;;5034720;28;20064;-51
2021/05/04 01:34:01;;;;;;;3.85;3.17;;;;;;;;;;5029776;28;20025;-55
2021/05/04 01:36:26;;;;;;;3.28;2.80;;;;;;;;;;5033698;28;20412;-49
2021/05/04 01:38:52;;;;;;;3.47;2.47;;;;;;;;;;5031899;28;20044;-53
2021/05/04 01:41:17;;;;;;;4.53;3.03;;;;;;;;;;5034606;28;20666;-51
2021/05/04 01:43:42;;;;;;;3.17;2.83;;;;;;;;;;5034630;28;20014;-52
2021/05/04 01:46:08;;;;;;;2.80;2.60;;;;;;;;;;5034221;28;20017;-51
2021/05/04 01:48:33;;;;;;;3.05;2.47;;;;;;;;;;5031252;28;20397;-52
2021/05/04 01:50:58;;;;;;;3.55;2.80;;;;;;;;;;5034388;28;20052;-52
2021/05/04 01:53:23;;;;;;;5.07;2.75;;;;;;;;;;5033246;28;20027;-50
2021/05/04 01:55:48;;;;;;;4.85;2.13;;;;;;;;;;5034136;28;20022;-49
2021/05/04 01:58:15;;;;;;;3.33;2.70;;;;;;;;;;5031089;28;20021;-52
2021/05/04 02:00:40;;;;;;;4.65;3.15;;;;;;;;;;5034176;28;20037;-53
2021/05/04 02:03:05;;;;;;;3.72;2.78;;;;;;;;;;5034380;28;20099;-48
2021/05/04 02:05:30;;;;;;;4.97;3.00;;;;;;;;;;5032459;28;20431;-52
2021/05/04 02:07:55;;;;;;;4.63;3.10;;;;;;;;;;5030965;28;20493;-50
2021/05/04 02:10:21;;;;;;;5.05;3.30;;;;;;;;;;5033963;28;20044;-51
2021/05/04 02:12:46;;;;;;;5.88;4.20;;;;;;;;;;5033330;28;20021;-51
2021/05/04 02:15:11;;;;;;;6.10;3.60;;;;;;;;;;5034070;28;20029;-54
2021/05/04 02:17:37;;;;;;;5.55;3.75;;;;;;;;;;5030772;28;20429;-47
2021/05/04 02:20:03;;;;;;;4.82;3.67;;;;;;;;;;5033781;28;20021;-50
2021/05/04 02:22:28;;;;;;;4.72;4.03;;;;;;;;;;5033492;28;20077;-51
2021/05/04 02:24:54;;;;;;;4.90;3.88;;;;;;;;;;5044483;28;20100;-53
2021/05/04 02:27:19;;;;;;;4.28;3.58;;;;;;;;;;5018333;28;20539;-52
2021/05/04 02:29:44;;;;;;;4.20;3.80;;;;;;;;;;5034001;28;20013;-52
2021/05/04 02:32:10;;;;;;;3.92;3.58;;;;;;;;;;5033290;28;20037;-54
2021/05/04 02:34:35;;;;;;;4.82;4.28;;;;;;;;;;5024521;28;20025;-48
2021/05/04 02:37:00;;;;;;;6.18;4.07;;;;;;;;;;5031568;28;20033;-49
2021/05/04 02:39:25;;;;;;;6.30;3.83;;;;;;;;;;5033370;28;20036;-49
2021/05/04 02:41:50;;;;;;;4.25;3.85;;;;;;;;;;5032914;28;20025;-50
2021/05/04 02:44:16;;;;;;;3.80;3.42;;;;;;;;;;5033732;28;20366;-52
2021/05/04 02:46:41;;;;;;;4.45;3.55;;;;;;;;;;5032839;28;20092;-52
2021/05/04 02:49:06;;;;;;;5.53;4.30;;;;;;;;;;5028762;28;20032;-52
2021/05/04 02:51:32;;;;;;;5.72;4.10;;;;;;;;;;5033146;28;20021;-51
2021/05/04 02:53:57;;;;;;;6.25;4.53;;;;;;;;;;5032357;28;20021;-54
2021/05/04 02:56:22;;;;;;;5.72;3.78;;;;;;;;;;5032882;28;20026;-50
2021/05/04 02:58:47;;;;;;;5.13;4.40;;;;;;;;;;5030436;28;20036;-49
2021/05/04 03:01:13;;;;;;;5.13;4.15;;;;;;;;;;5032955;28;20059;-51
2021/05/04 03:03:40;;;;;;;5.20;4.22;;;;;;;;;;5032883;28;20021;-47
2021/05/04 03:06:05;;;;;;;4.78;4.28;;;;;;;;;;5032607;28;20393;-47
2021/05/04 03:08:31;;;;;;;5.78;4.20;;;;;;;;;;5029503;28;20044;-51
2021/05/04 03:10:57;;;;;;;4.30;3.38;;;;;;;;;;5032324;28;20028;-50
2021/05/04 03:13:23;;;;;;;4.60;4.03;;;;;;;;;;5032749;28;20021;-51
2021/05/04 03:15:48;;;;;;;5.05;4.30;;;;;;;;;;5032162;28;20025;-48
2021/05/04 03:18:13;;;;;;;4.07;3.65;;;;;;;;;;5028731;28;20110;-52
2021/05/04 03:20:39;;;;;;;5.82;3.95;;;;;;;;;;5032581;28;20496;-47
2021/05/04 03:23:05;;;;;;;5.28;3.30;;;;;;;;;;5032572;28;20041;-49
2021/05/04 03:25:30;;;;;;;6.25;3.85;;;;;;;;;;5031913;28;20017;-49
2021/05/04 03:27:58;;;;;;;4.63;3.63;;;;;;;;;;5029260;28;20018;-51
2021/05/04 03:30:23;;;;;;;4.55;3.58;;;;;;;;;;5031563;28;20025;-51
2021/05/04 03:32:48;;;;;;;4.82;3.85;;;;;;;;;;5032741;28;20033;-54
2021/05/04 03:35:13;;;;;;;4.90;3.63;;;;;;;;;;5032566;28;20022;-50
2021/05/04 03:37:39;;;;;;;4.15;3.60;;;;;;;;;;5029096;28;20033;-46
2021/05/04 03:40:04;;;;;;;4.35;3.55;;;;;;;;;;5031457;28;20025;-51
2021/05/04 03:42:29;;;;;;;4.88;3.30;;;;;;;;;;5031489;28;20064;-53
2021/05/04 03:44:55;;;;;;;4.80;4.22;;;;;;;;;;5031006;28;20116;-49
2021/05/04 03:47:20;;;;;;;5.78;3.60;;;;;;;;;;5035024;28;20508;-49
2021/05/04 03:49:45;;;;;;;5.10;4.47;;;;;;;;;;5037333;28;20479;-48
2021/05/04 03:52:10;;;;;;;5.38;4.05;;;;;;;;;;5035811;28;20041;-53
2021/05/04 03:54:35;;;;;;;5.28;4.00;;;;;;;;;;5036591;28;20030;-53
2021/05/04 03:57:01;;;;;;;4.80;4.05;;;;;;;;;;5033962;28;20021;-49
2021/05/04 03:59:26;;;;;;;4.57;3.78;;;;;;;;;;5033415;28;20040;-51
2021/05/04 04:01:51;;;;;;;5.10;4.60;;;;;;;;;;5052115;28;20025;-51
2021/05/04 04:04:16;;;;;;;4.72;3.97;;;;;;;;;;5045090;28;20100;-52
2021/05/04 04:06:42;;;;;;;5.55;4.65;;;;;;;;;;5033882;28;20025;-51
2021/05/04 04:09:07;;;;;;;4.60;4.20;;;;;;;;;;5041386;28;20053;-50
2021/05/04 04:11:32;;;;;;;6.65;6.05;;;;;;;;;;5034014;28;20443;-47
2021/05/04 04:13:59;;;;;;;4.88;4.38;;;;;;;;;;5045414;28;20032;-49
2021/05/04 04:16:24;;;;;;;4.43;3.97;;;;;;;;;;5036547;28;20037;-53
2021/05/04 04:18:50;;;;;;;5.85;4.38;;;;;;;;;;5044683;28;20060;-54
2021/05/04 04:21:15;;;;;;;6.22;5.00;;;;;;;;;;5052068;28;20032;-52
2021/05/04 04:23:40;;;;;;;7.10;4.03;;;;;;;;;;5036467;28;20039;-53
2021/05/04 04:26:05;;;;;;;5.95;5.03;;;;;;;;;;5038865;28;20036;-51
2021/05/04 04:28:31;;;;;;;5.88;4.65;;;;;;;;;;5029356;28;20101;-53
2021/05/04 04:30:56;;;;;;;6.85;5.07;;;;;;;;;;5032049;28;20366;-52
2021/05/04 04:33:25;;;;;;;5.80;4.43;;;;;;;;;;5036953;28;20025;-48
2021/05/04 04:35:50;;;;;;;5.70;5.05;;;;;;;;;;5032296;28;20107;-52
2021/05/04 04:38:15;;;;;;;5.45;4.45;;;;;;;;;;5039264;28;20021;-52
2021/05/04 04:40:40;;;;;;;5.45;4.95;;;;;;;;;;5051089;28;20159;-51
2021/05/04 04:43:05;;;;;;;5.18;4.63;;;;;;;;;;5034197;28;20396;-51
2021/05/04 04:45:31;;;;;;;6.75;4.35;;;;;;;;;;5035701;28;20476;-49
2021/05/04 04:47:56;;;;;;;5.80;4.55;;;;;;;;;;5031745;28;20021;-51
2021/05/04 04:50:21;;;;;;;5.22;4.07;;;;;;;;;;5024792;28;20080;-48
2021/05/04 04:52:46;;;;;;;5.38;4.88;;;;;;;;;;5033834;28;20025;-47
2021/05/04 04:55:12;;;;;;;6.38;5.00;;;;;;;;;;5035490;28;20104;-51
2021/05/04 04:57:37;;;;;;;6.28;5.22;;;;;;;;;;5031926;28;20116;-48
2021/05/04 05:00:03;;;;;;;3.83;3.53;;;;;;;;;;5035040;28;20416;-48
2021/05/04 05:02:28;;;;;;;4.97;4.28;;;;;;;;;;5034500;28;20365;-53
2021/05/04 05:04:53;;;;;;;6.07;5.18;;;;;;;;;;5035201;28;20018;-52
2021/05/04 05:07:18;;;;;;;4.50;4.10;;;;;;;;;;5035245;28;20016;-51
2021/05/04 05:09:45;;;;;;;5.45;3.90;;;;;;;;;;5035312;28;20041;-52
2021/05/04 05:12:10;;;;;;;5.40;3.80;;;;;;;;;;5034295;28;20029;-47
2021/05/04 05:14:38;;;;;;;6.63;4.50;;;;;;;;;;5035251;28;20037;-51
2021/05/04 05:17:04;;;;;;;4.85;4.35;;;;;;;;;;5031926;28;20420;-53
2021/05/04 05:19:29;;;;;;;4.97;4.47;;;;;;;;;;5033899;28;20039;-49
2021/05/04 05:21:54;;;;;;;5.20;3.47;;;;;;;;;;5034588;28;20163;-50
2021/05/04 05:24:20;;;;;;;4.90;4.25;;;;;;;;;;5035581;28;20051;-52
2021/05/04 05:26:45;;;;;;;4.65;3.33;;;;;;;;;;5034344;28;20071;-50
2021/05/04 05:29:10;;;;;;;4.88;3.55;;;;;;;;;;5032067;28;20111;-54
2021/05/04 05:31:36;;;;;;;4.28;3.67;;;;;;;;;;5034877;28;20013;-52
2021/05/04 05:34:02;;;;;;;5.60;3.47;;;;;;;;;;5032532;28;20075;-52
2021/05/04 05:36:27;;;;;;;6.13;4.22;;;;;;;;;;5034143;28;20123;-48
2021/05/04 05:38:52;;;;;;;4.47;3.78;;;;;;;;;;5031903;28;20017;-50
2021/05/04 05:41:17;;;;;;;4.07;3.67;;;;;;;;;;5033808;28;20037;-48
2021/05/04 05:43:43;;;;;;;4.40;3.97;;;;;;;;;;5032250;28;20022;-51
2021/05/04 05:46:08;;;;;;;4.53;3.55;;;;;;;;;;5041816;28;20112;-49
2021/05/04 05:48:33;;;;;;;5.45;3.25;;;;;;;;;;5050111;28;20021;-52
2021/05/04 05:50:58;;;;;;;5.47;3.30;;;;;;;;;;5053781;28;20013;-49
2021/05/04 05:53:24;;;;;;;4.65;3.90;;;;;;;;;;5035266;28;20026;-52
2021/05/04 05:55:49;;;;;;;4.43;3.40;;;;;;;;;;5037943;28;20013;-53
2021/05/04 05:58:14;;;;;;;4.18;3.70;;;;;;;;;;5041641;28;20021;-51
2021/05/04 06:00:40;;;;;;;6.20;3.85;;;;;;;;;;5038762;28;20078;-50
2021/05/04 06:03:05;;;;;;;5.50;3.83;;;;;;;;;;5040774;28;20544;-53
2021/05/04 06:05:31;;;;;;;3.83;3.53;;;;;;;;;;5035818;28;20021;-51
2021/05/04 06:07:56;;;;;;;4.07;3.55;;;;;;;;;;5034899;28;20018;-46
2021/05/04 06:10:22;;;;;;;5.28;3.90;;;;;;;;;;5034141;28;20116;-54
2021/05/04 06:12:54;;;;;;;4.70;3.90;;;;;;;;;;5044349;28;20464;-54
2021/05/04 06:15:19;;;;;;;4.07;3.05;;;;;;;;;;5045325;28;20025;-49
2021/05/04 06:17:45;;;;;;;3.35;3.05;;;;;;;;;;5045286;28;20025;-47
2021/05/04 06:20:10;;;;;;;3.92;3.08;;;;;;;;;;5032193;28;20034;-49
2021/05/04 06:22:36;;;;;;;3.78;3.33;;;;;;;;;;5033736;28;20284;-53
2021/05/04 06:25:01;;;;;;;3.85;3.20;;;;;;;;;;5033643;28;20025;-51
2021/05/04 06:27:26;;;;;;;3.72;3.28;;;;;;;;;;5030059;28;20041;-53
2021/05/04 06:29:51;;;;;;;4.43;2.97;;;;;;;;;;5032640;28;20108;-53
2021/05/04 06:32:23;;;;;;;3.85;3.08;;;;;;;;;;5033516;28;20028;-53
2021/05/04 06:34:48;;;;;;;4.90;2.90;;;;;;;;;;5033142;28;20026;-51
2021/05/04 06:37:14;;;;;;;3.53;2.67;;;;;;;;;;5030748;28;20544;-49
2021/05/04 06:39:39;;;;;;;3.00;2.65;;;;;;;;;;5038681;28;20385;-51
2021/05/04 06:42:04;;;;;;;2.85;2.50;;;;;;;;;;5046063;28;20033;-53
2021/05/04 06:44:29;;;;;;;2.60;2.40;;;;;;;;;;5047391;28;20024;-53
2021/05/04 06:46:55;;;;;;;3.10;2.38;;;;;;;;;;5040771;28;20104;-54
2021/05/04 06:49:20;;;;;;;3.70;2.75;;;;;;;;;;5027832;28;20029;-52
2021/05/04 06:51:45;;;;;;;4.60;3.28;;;;;;;;;;5028410;28;20025;-55
2021/05/04 06:54:10;;;;;;;3.30;2.50;;;;;;;;;;5033506;28;20028;-54
2021/05/04 06:56:36;;;;;;;2.90;2.60;;;;;;;;;;5033168;28;20029;-53
2021/05/04 06:59:01;;;;;;;4.18;2.63;;;;;;;;;;5042382;28;20052;-53
2021/05/04 07:01:26;;;;;;;3.10;2.80;;;;;;;;;;5032849;28;20025;-52
2021/05/04 07:03:53;;;;;;;3.08;2.40;;;;;;;;;;5028687;28;20049;-55
2021/05/04 07:06:18;;;;;;;2.33;2.13;;;;;;;;;;5032770;28;20025;-53
2021/05/04 07:08:43;;;;;;;2.80;2.40;;;;;;;;;;5032070;28;20042;-54
2021/05/04 07:11:09;;;;;;;3.75;2.13;;;;;;;;;;5044843;28;20078;-51
2021/05/04 07:13:34;;;;;;;2.78;2.50;;;;;;;;;;5050896;28;20032;-54
2021/05/04 07:15:59;;;;;;;2.15;1.95;;;;;;;;;;5032879;28;20071;-55
2021/05/04 07:18:25;;;;;;;2.63;2.42;;;;;;;;;;5033676;28;20022;-52
2021/05/04 07:20:51;;;;;;;2.38;2.17;;;;;;;;;;5033413;28;20018;-52
2021/05/04 07:23:16;;;;;;;3.00;2.70;;;;;;;;;;5043366;28;20091;-53
2021/05/04 07:25:41;;;;;;;3.72;2.38;;;;;;;;;;5046496;28;20545;-51
2021/05/04 07:28:07;;;;;;;3.22;1.83;;;;;;;;;;5028213;28;20029;-50
2021/05/04 07:30:33;;;;;;;2.80;1.85;;;;;;;;;;5034325;28;20451;-53
2021/05/04 07:32:59;;;;;;;3.65;1.73;;;;;;;;;;5031352;28;20018;-55
2021/05/04 07:35:24;;;;;;;2.30;1.58;;;;;;;;;;5034998;28;20021;-53
2021/05/04 07:37:50;;;;;;;2.85;1.23;;;;;;;;;;5037434;28;20056;-55
2021/05/04 07:40:15;;;;;;;2.05;1.10;;;;;;;;;;5036775;28;20048;-53
2021/05/04 07:42:41;;;;;;;1.00;0.90;;;;;;;;;;5038983;28;20029;-50
2021/05/04 07:45:06;;;;;;;1.52;1.02;;;;;;;;;;5035955;28;20033;-53
2021/05/04 07:47:32;;;;;;;2.70;0.90;;;;;;;;;;5029079;28;20025;-52
2021/05/04 07:49:57;;;;;;;2.80;1.02;;;;;;;;;;5037188;28;20064;-53
2021/05/04 07:52:23;;;;;;;1.45;0.85;;;;;;;;;;5035648;28;20430;-49
2021/05/04 07:54:50;;;;;;;3.33;0.88;;;;;;;;;;5040296;28;20032;-51
2021/05/04 07:57:16;;;;;;;1.85;1.02;;;;;;;;;;5031443;28;20036;-51
2021/05/04 07:59:41;;;;;;;1.58;1.20;;;;;;;;;;5039430;28;20317;-52
2021/05/04 08:02:06;;;;;;;2.45;0.90;;;;;;;;;;5035627;28;20040;-51
2021/05/04 08:04:31;;;;;;;1.35;1.05;;;;;;;;;;5035047;28;20059;-49
2021/05/04 08:06:59;;;;;;;2.53;1.10;;;;;;;;;;5038386;28;20037;-51
2021/05/04 08:09:25;;;;;;;1.30;0.60;;;;;;;;;;5036123;28;20522;-50
2021/05/04 08:11:51;;;;;;;1.38;0.80;;;;;;;;;;5036339;28;20407;-54
2021/05/04 08:14:17;;;;;;;3.15;1.20;;;;;;;;;;5034134;28;20029;-50
2021/05/04 08:16:42;;;;;;;1.85;0.90;;;;;;;;;;5027981;28;20036;-48
2021/05/04 08:19:07;;;;;;;1.95;0.63;;;;;;;;;;5010179;28;20029;-52
2021/05/04 08:21:34;;;;;;;2.90;0.90;;;;;;;;;;5012986;28;20100;-53
2021/05/04 08:24:00;;;;;;;1.20;0.70;;;;;;;;;;5027201;28;20583;-56
2021/05/04 08:26:26;;;;;;;2.85;1.05;;;;;;;;;;5042048;28;20045;-54
2021/05/04 08:28:52;;;;;;;3.60;0.77;;;;;;;;;;5038406;28;20068;-53
2021/05/04 08:31:17;;;;;;;2.78;0.80;;;;;;;;;;5038301;28;20025;-50
2021/05/04 08:33:42;;;;;;;3.85;0.60;;;;;;;;;;5049155;28;20487;-48
2021/05/04 08:36:07;;;;;;;1.88;1.10;;;;;;;;;;5042458;28;20029;-49
2021/05/04 08:38:33;;;;;;;2.17;1.10;;;;;;;;;;5040934;28;20037;-53
2021/05/04 08:40:59;;;;;;;1.23;0.70;;;;;;;;;;5031226;28;20025;-52
2021/05/04 08:43:25;;;;;;;1.73;0.60;;;;;;;;;;5043387;28;20025;-51
2021/05/04 08:45:57;;;;;;;2.35;0.80;;;;;;;;;;5043686;28;20388;-49
2021/05/04 08:48:24;;;;;;;1.98;1.05;;;;;;;;;;5042086;28;20055;-52
2021/05/04 08:50:49;;;;;;;2.55;1.00;;;;;;;;;;5046182;28;20397;-53
2021/05/04 08:53:14;;;;;;;1.20;0.80;;;;;;;;;;5048103;28;20032;-50
2021/05/04 08:55:39;;;;;;;2.00;0.60;;;;;;;;;;5048398;28;20029;-53
2021/05/04 08:58:04;;;;;;;1.85;0.70;;;;;;;;;;5047216;28;20029;-53
2021/05/04 09:00:30;;;;;;;1.33;0.55;;;;;;;;;;5040049;28;20033;-50
2021/05/04 09:02:59;;;;;;;3.55;0.63;;;;;;;;;;5039117;28;20029;-51
2021/05/04 09:05:24;;;;;;;3.15;0.70;;;;;;;;;;5049852;28;20070;-52
2021/05/04 09:07:50;;;;;;;1.50;0.80;;;;;;;;;;5044033;28;20470;-53
2021/05/04 09:10:33;;;;;;;2.53;0.43;;;;;;;;;;5043602;28;20415;-54
2021/05/04 09:13:13;;;;;;;1.40;0.70;;;;;;;;;;5032627;28;20037;-49
2021/05/04 09:18:25;;;;;;;1.70;0.93;;;;;;;;;;5029529;28;20115;-55
2021/05/04 09:21:02;;;;;;;2.88;0.68;;;;;;;;;;5035880;28;20496;-53
2021/05/04 09:23:28;;;;;;;2.67;0.50;;;;;;;;;;5037390;28;20082;-52
2021/05/04 09:25:54;;;;;;;0.90;0.68;;;;;;;;;;5039218;28;20061;-54
2021/05/04 09:28:20;;;;;;;1.10;0.40;;;;;;;;;;5038434;28;20039;-54
2021/05/04 09:30:51;;;;;;;3.70;0.75;;;;;;;;;;5044746;28;20021;-56
2021/05/04 09:33:16;;;;;;;1.70;0.40;;;;;;;;;;5047809;28;20055;-55
2021/05/04 09:35:41;;;;;;;1.35;0.30;;;;;;;;;;5046958;28;20021;-53
2021/05/04 09:38:07;;;;;;;1.90;0.50;;;;;;;;;;5037169;28;20791;-55
2021/05/04 09:40:36;;;;;;;0.43;0.17;;;;;;;;;;5048920;28;20033;-54
2021/05/04 09:43:04;;;;;;;2.63;0.45;;;;;;;;;;5050140;28;20032;-56
2021/05/04 09:45:30;;;;;;;2.53;0.50;;;;;;;;;;5045294;28;20028;-54
2021/05/04 09:48:12;;;;;;;1.20;0.30;;;;;;;;;;5040772;28;20017;-54
2021/05/04 09:50:48;;;;;;;10.88;0.77;;;;;;;;;;5054654;28;20017;-52
2021/05/04 09:53:14;;;;;;;2.50;0.60;;;;;;;;;;5048748;28;20119;-53
2021/05/04 09:55:53;;;;;;;1.65;0.75;;;;;;;;;;5048162;28;20377;-53
2021/05/04 09:58:28;;;;;;;2.28;0.50;;;;;;;;;;5035029;28;20056;-54
2021/05/04 10:00:53;;;;;;;1.88;0.52;;;;;;;;;;5044976;28;20017;-54
2021/05/04 10:03:20;;;;;;;0.40;0.30;;;;;;;;;;5037759;28;20025;-53
2021/05/04 10:05:45;;;;;;;3.05;0.60;;;;;;;;;;5042223;28;20009;-53
2021/05/04 10:08:10;;;;;;;2.28;0.52;;;;;;;;;;5040500;28;20040;-52
2021/05/04 10:10:35;;;;;;;1.77;0.63;;;;;;;;;;5039320;28;20013;-54
2021/05/04 10:13:01;;;;;;;1.52;0.55;;;;;;;;;;5042652;28;20021;-52
2021/05/04 10:15:26;;;;;;;2.10;0.43;;;;;;;;;;5044643;28;20492;-52
2021/05/04 10:17:51;;;;;;;1.75;0.50;;;;;;;;;;5040906;28;20026;-54
2021/05/04 10:20:18;;;;;;;1.50;0.50;;;;;;;;;;5040997;28;20396;-47
2021/05/04 10:22:44;;;;;;;0.70;0.40;;;;;;;;;;5037273;28;21259;-53
2021/05/04 10:25:17;;;;;;;6.22;0.50;;;;;;;;;;5044267;28;20564;-50
2021/05/04 10:27:43;;;;;;;1.88;0.40;;;;;;;;;;5036758;28;20020;-51
2021/05/04 10:30:09;;;;;;;1.38;0.38;;;;;;;;;;5037941;28;20028;-51
2021/05/04 10:32:48;;;;;;;1.38;0.40;;;;;;;;;;5040218;28;20108;-49
2021/05/04 10:35:25;;;;;;;1.02;0.30;;;;;;;;;;5041725;28;20021;-55
2021/05/04 10:37:57;;;;;;;2.60;0.40;;;;;;;;;;5038057;28;20049;-52
2021/05/04 10:40:25;;;;;;;1.30;0.50;;;;;;;;;;5039004;28;20025;-53
2021/05/04 10:42:50;;;;;;;3.75;0.60;;;;;;;;;;5039593;28;20115;-52
2021/05/04 10:45:16;;;;;;;2.88;0.63;;;;;;;;;;5045316;28;20092;-52
2021/05/04 10:47:46;;;;;;;1.35;0.52;;;;;;;;;;5035283;28;20017;-54
2021/05/04 10:50:12;;;;;;;2.95;0.40;;;;;;;;;;5037698;28;20022;-54
2021/05/04 10:52:54;;;;;;;1.17;0.40;;;;;;;;;;5041283;28;20029;-55
2021/05/04 10:55:20;;;;;;;1.85;0.70;;;;;;;;;;5045544;28;20032;-52
2021/05/04 10:57:55;;;;;;;1.00;0.50;;;;;;;;;;5036176;28;20025;-52
2021/05/04 11:00:49;;;;;;;1.53;0.73;;;;;;;;;;5033760;28;20021;-53
2021/05/04 11:03:30;;;;;;;1.63;0.40;;;;;;;;;;5020960;28;20854;-53
2021/05/04 11:06:15;;;;;;;0.88;0.50;;;;;;;;;;5039258;28;20136;-53
2021/05/04 11:08:41;;;;;;;;;;;;;;;;;;5035535;28;20374;-55
2021/05/04 11:11:26;;;;;;;3.25;0.65;;;;;;;;;;5040563;28;19928;-54
2021/05/04 11:13:51;;;;;;;;;;;;;;;;;;5038575;28;20122;-50
2021/05/04 11:16:40;;;;;;;2.17;0.75;;;;;;;;;;5040428;28;19983;-52
2021/05/04 11:19:08;;;;;;;0.77;0.30;;;;;;;;;;5037688;28;20505;-54
2021/05/04 11:21:39;;;;;;;2.80;0.73;;;;;;;;;;5036704;28;20401;-53
2021/05/04 11:24:06;;;;;;;1.23;0.52;;;;;;;;;;5037983;28;20115;-53
2021/05/04 11:26:47;;;;;;;4.68;0.80;;;;;;;;;;5039706;28;20024;-54
2021/05/04 11:29:17;;;;;;;3.60;0.70;;;;;;;;;;5035957;28;20017;-53
2021/05/04 11:31:49;;;;;;;1.17;0.65;;;;;;;;;;5039510;28;20029;-53
2021/05/04 11:34:33;;;;;;;2.80;0.65;;;;;;;;;;5037192;28;20021;-48
2021/05/04 11:36:59;;;;;;;1.80;0.60;;;;;;;;;;5038905;28;20103;-51
2021/05/04 11:39:24;;;;;;;3.50;0.80;;;;;;;;;;5033811;28;20480;-51
2021/05/04 11:41:55;;;;;;;2.97;1.08;;;;;;;;;;5038750;28;20025;-52
2021/05/04 11:44:27;;;;;;;0.52;0.32;;;;;;;;;;5043258;28;20021;-53
2021/05/04 11:46:53;;;;;;;1.95;0.82;;;;;;;;;;5038801;28;20017;-53
2021/05/04 11:49:29;;;;;;;1.58;1.00;;;;;;;;;;5038226;28;20365;-54
2021/05/04 11:52:04;;;;;;;5.30;1.63;;;;;;;;;;5037788;28;20029;-54
2021/05/04 11:54:30;;;;;;;1.77;0.95;;;;;;;;;;5039143;28;20024;-53
2021/05/04 11:56:56;;;;;;;0.60;0.40;;;;;;;;;;5035464;28;20025;-53
2021/05/04 11:59:23;;;;;;;2.55;1.13;;;;;;;;;;5037426;28;20027;-53
2021/05/04 12:01:48;;;;;;;2.55;0.50;;;;;;;;;;5036835;28;20112;-49
2021/05/04 12:04:14;;;;;;;1.88;0.60;;;;;;;;;;5039856;28;20054;-52
2021/05/04 12:06:48;;;;;;;2.58;0.90;;;;;;;;;;5038005;28;20031;-54
2021/05/04 12:09:14;;;;;;;2.40;0.77;;;;;;;;;;5032724;28;20041;-53
2021/05/04 12:11:40;;;;;;;2.22;0.70;;;;;;;;;;5038935;28;20045;-53
2021/05/04 12:14:05;;;;;;;1.60;0.68;;;;;;;;;;5038099;28;20055;-55
2021/05/04 12:16:30;;;;;;;1.75;0.70;;;;;;;;;;5047621;28;20032;-54
2021/05/04 12:18:55;;;;;;;1.85;0.80;;;;;;;;;;5037202;28;20476;-53
2021/05/04 12:21:21;;;;;;;1.33;0.85;;;;;;;;;;5033021;28;20558;-53
2021/05/04 12:23:46;;;;;;;4.07;1.13;;;;;;;;;;5045440;28;20132;-51
2021/05/04 12:26:13;;;;;;;1.85;0.82;;;;;;;;;;5048193;28;20511;-53
2021/05/04 12:28:43;;;;;;;2.70;0.70;;;;;;;;;;5040775;28;20016;-51
2021/05/04 12:31:10;;;;;;;1.67;0.68;;;;;;;;;;5048015;28;20383;-51
2021/05/04 12:33:37;;;;;;;2.92;0.80;;;;;;;;;;5042940;28;20022;-53
2021/05/04 12:36:06;;;;;;;0.77;0.63;;;;;;;;;;5042883;28;20029;-51
2021/05/04 12:39:01;;;;;;;4.63;0.50;;;;;;;;;;5044047;28;20029;-54
2021/05/04 12:41:34;;;;;;;2.55;0.90;;;;;;;;;;5034232;28;20022;-53
2021/05/04 12:46:45;;;;;;;1.33;0.82;;;;;;;;;;5048149;28;20017;-54
2021/05/04 12:49:10;;;;;;;1.85;0.60;;;;;;;;;;5025146;28;20029;-54
2021/05/04 12:51:36;;;;;;;3.65;0.47;;;;;;;;;;5043075;28;20029;-52
2021/05/04 12:54:04;;;;;;;1.40;0.73;;;;;;;;;;5012425;28;20417;-53
2021/05/04 12:56:31;;;;;;;8.10;0.40;;;;;;;;;;5027850;28;20041;-49
2021/05/04 12:59:00;;;;;;;2.90;0.40;;;;;;;;;;5039576;28;20025;-55
2021/05/04 13:01:45;;;;;;;0.80;0.20;;;;;;;;;;5038404;28;20029;-52
2021/05/04 13:04:33;;;;;;;1.00;0.20;;;;;;;;;;5041537;28;20606;-54
2021/05/04 13:07:03;;;;;;;1.15;0.15;;;;;;;;;;5023706;28;20483;-58
2021/05/04 13:09:43;;;;;;;2.72;0.30;;;;;;;;;;5044939;28;20041;-55
2021/05/04 13:14:59;;;;;;;2.42;0.43;;;;;;;;;;5052761;28;20023;-55
2021/05/04 13:28:35;;;;;;;2.22;0.85;;;;;;;;;;5015155;28;20073;-52
2021/05/04 13:31:01;;;;;;;1.58;0.70;;;;;;;;;;5017243;28;20048;-51
2021/05/04 13:33:26;;;;;;;0.73;0.10;;;;;;;;;;5016423;28;20442;-53
2021/05/04 13:36:03;;;;;;;0.60;0.13;;;;;;;;;;5008483;28;20034;-51
2021/05/04 13:38:45;;;;;;;1.67;0.20;;;;;;;;;;5000807;28;21293;-53
2021/05/04 13:49:22;;;;;;;1.80;0.38;;;;;;;;;;5010848;28;20052;-55
2021/05/04 13:51:49;;;;;;;0.40;0.20;;;;;;;;;;5012436;28;20117;-55
2021/05/04 13:54:15;;;;;;;0.70;0.25;;;;;;;;;;5006924;28;20022;-52
2021/05/04 13:56:40;;;;;;;2.85;0.40;;;;;;;;;;5008896;28;20044;-55
2021/05/04 13:59:05;;;;;;;2.45;0.20;;;;;;;;;;5009601;28;20034;-50
2021/05/04 14:02:01;;;;;;;1.17;0.20;;;;;;;;;;5012274;28;20022;-50
2021/05/04 14:04:26;;;;;;;0.50;0.10;;;;;;;;;;5013271;28;20545;-50
2021/05/04 14:27:53;;;;;;;0.93;0.10;;;;;;;;;;5030917;28;20461;-56
2021/05/04 14:30:19;;;;;;;0.20;0.00;;;;;;;;;;5033711;28;20083;-56
2021/05/04 14:32:44;;;;;;;1.60;0.10;;;;;;;;;;5032229;28;20472;-54
2021/05/04 14:35:21;;;;;;;1.65;0.20;;;;;;;;;;5032312;28;20030;-55
2021/05/04 14:40:39;;;;;;;1.65;0.30;;;;;;;;;;5016843;28;20485;-57
2021/05/04 14:59:28;;;;;;;0.70;0.00;;;;;;;;;;5040265;28;20124;-55
2021/05/04 15:01:55;;;;;;;1.85;0.20;;;;;;;;;;5033100;28;20056;-50
2021/05/04 15:04:20;;;;;;;1.70;0.10;;;;;;;;;;5032885;28;20484;-53
2021/05/04 15:06:45;;;;;;;7.47;0.20;;;;;;;;;;5032577;28;20026;-55
2021/05/04 15:09:11;;;;;;;0.80;0.00;;;;;;;;;;5028909;28;20056;-56
2021/05/04 15:11:41;;;;;;;0.82;0.10;;;;;;;;;;5032250;28;20485;-56
2021/05/04 15:14:12;;;;;;;4.38;0.20;;;;;;;;;;5032640;28;20025;-53
2021/05/04 15:16:49;;;;;;;0.60;0.10;;;;;;;;;;5034195;28;20029;-52
2021/05/04 15:22:00;;;;;;;0.38;0.15;;;;;;;;;;5029580;28;20036;-53
2021/05/04 15:24:26;;;;;;;0.40;0.40;;;;;;;;;;5028141;28;20029;-50
2021/05/04 15:26:52;;;;;;;0.85;0.10;;;;;;;;;;5040469;28;20021;-52
2021/05/04 15:29:17;;;;;;;0.73;0.10;;;;;;;;;;5032719;28;20456;-54
2021/05/04 15:31:49;;;;;;;1.77;0.15;;;;;;;;;;5036472;28;20013;-53
2021/05/04 15:34:15;;;;;;;0.68;0.10;;;;;;;;;;5031841;28;20111;-53
2021/05/04 15:36:40;;;;;;;0.30;0.10;;;;;;;;;;5031439;28;20733;-53
2021/05/04 15:39:08;;;;;;;1.65;0.10;;;;;;;;;;5027868;28;20413;-50
2021/05/04 15:41:34;;;;;;;0.73;0.10;;;;;;;;;;5031388;28;20032;-49
2021/05/04 15:44:00;;;;;;;0.60;0.10;;;;;;;;;;5028278;28;20018;-52
2021/05/04 15:54:39;;;;;;;0.90;0.10;;;;;;;;;;5031527;28;20025;-50
2021/05/04 16:07:45;;;;;;;0.25;0.05;;;;;;;;;;5037919;28;20052;-53
2021/05/04 16:10:10;;;;;;;0.22;0.00;;;;;;;;;;5024633;28;20091;-51
2021/05/04 16:12:36;;;;;;;1.10;0.00;;;;;;;;;;5031062;28;20456;-53